Snow/Ice From: 17-12-2017 10:00 Until: 18-12-2017 06:00 warning for: Snow/Ice Level: Yellow info button

Although rather usual in this region, locally or potentially dangerous phenomena are expected. (such as local winds, summer thunderstorms, rising streams or high waves) Be aware and pay attention to the latest weather updates, especially if you carry out activities exposed to weather or close to a stream or shoreline. 


Meteo18 Weather Cam more information Meteo18 Weather Cam


Thunder radar more information blitzortung!


warning for Snow/Ice more information rain snow radar


Visit our other weather sites:

Template documentation
and downloads

And another site



Weather Underground History page Text

Daily Summary for February 4, 2017 Units:  Both    English   Metric
« Previous Day
Next Day »
Daily Weekly Monthly Yearly Custom
  High: Low: Average:
Temperature: 47.5 °F /  8.6 °C 37.2 °F /  2.9 °C 43 °F /  6.1 °C
Dew Point: 44.2 °F /  6.8 °C 34.5 °F /  1.4 °C 39.2 °F /  4 °C
Humidity: 94 % 73 % 87 %
Wind Speed: 36 mph /  57.9 km/h - 8.4 mph /  13.5 km/h
Wind Gust: 43 mph /  69.2 km/h - -
Wind:- - SSW
Pressure: 29.7 in /  1007.0 hPa 29.2 in /  989.1 hPa -
Precipitation: 0.61 in /  15.5 mm    
Historical Graphs
 
 
Tabular Data for February 4, 2017
Time Temperature Dew Point Pressure Wind Wind Speed Wind Gust Humidity Rainfall Rate (Hourly)
00:02 40.8 °F /  4.9 °C 38.1 °F /  3.4 °C 29.7 in /  1006.3 hPa ESE 4 mph /  6.4 km/h 8 mph /  12.9 km/h 90 % 0 in /  0.0 mm
00:07 40.8 °F /  4.9 °C 37.8 °F /  3.2 °C 29.7 in /  1006.3 hPa SSE 2 mph /  3.2 km/h 8 mph /  12.9 km/h 89 % 0 in /  0.0 mm
00:12 40.8 °F /  4.9 °C 37.8 °F /  3.2 °C 29.7 in /  1006.0 hPa SSE 4 mph /  6.4 km/h 7 mph /  11.3 km/h 89 % 0 in /  0.0 mm
00:17 40.8 °F /  4.9 °C 37.8 °F /  3.2 °C 29.7 in /  1006.0 hPa SSE 3 mph /  4.8 km/h 7 mph /  11.3 km/h 89 % 0 in /  0.0 mm
00:22 40.8 °F /  4.9 °C 37.8 °F /  3.2 °C 29.7 in /  1006.0 hPa SSE 1 mph /  1.6 km/h 7 mph /  11.3 km/h 89 % 0 in /  0.0 mm
00:27 40.8 °F /  4.9 °C 37.8 °F /  3.2 °C 29.7 in /  1006.0 hPa SSE 1 mph /  1.6 km/h 7 mph /  11.3 km/h 89 % 0 in /  0.0 mm
00:32 40.8 °F /  4.9 °C 37.8 °F /  3.2 °C 29.7 in /  1005.6 hPa SSE 1 mph /  1.6 km/h 7 mph /  11.3 km/h 89 % 0 in /  0.0 mm
00:42 40.8 °F /  4.9 °C 37.8 °F /  3.2 °C 29.7 in /  1005.0 hPa SE 2 mph /  3.2 km/h 7 mph /  11.3 km/h 89 % 0 in /  0.0 mm
00:47 40.8 °F /  4.9 °C 37.8 °F /  3.2 °C 29.7 in /  1004.6 hPa SE 1 mph /  1.6 km/h 7 mph /  11.3 km/h 89 % 0 in /  0.0 mm
00:52 40.8 °F /  4.9 °C 37.6 °F /  3.1 °C 29.7 in /  1004.3 hPa ESE 5 mph /  8.0 km/h 7 mph /  11.3 km/h 88 % 0 in /  0.0 mm
00:57 41.2 °F /  5.1 °C 37.9 °F /  3.3 °C 29.6 in /  1003.9 hPa ESE 2 mph /  3.2 km/h 7 mph /  11.3 km/h 88 % 0 in /  0.0 mm
01:02 41.4 °F /  5.2 °C 37.8 °F /  3.2 °C 29.6 in /  1003.6 hPa ESE 2 mph /  3.2 km/h 9 mph /  14.5 km/h 87 % 0 in /  0.0 mm
01:07 41.4 °F /  5.2 °C 37.8 °F /  3.2 °C 29.6 in /  1003.9 hPa SE 3 mph /  4.8 km/h 9 mph /  14.5 km/h 87 % 0 in /  0.0 mm
01:12 41.2 °F /  5.1 °C 37.9 °F /  3.3 °C 29.6 in /  1003.6 hPa SE 6 mph /  9.7 km/h 8 mph /  12.9 km/h 88 % 0 in /  0.0 mm
01:17 41.2 °F /  5.1 °C 37.9 °F /  3.3 °C 29.6 in /  1003.6 hPa SSE 2 mph /  3.2 km/h 7 mph /  11.3 km/h 88 % 0 in /  0.0 mm
01:22 41.2 °F /  5.1 °C 37.6 °F /  3.1 °C 29.6 in /  1003.3 hPa SE 3 mph /  4.8 km/h 7 mph /  11.3 km/h 87 % 0 in /  0.0 mm
01:27 41.4 °F /  5.2 °C 37.8 °F /  3.2 °C 29.6 in /  1002.9 hPa SE 6 mph /  9.7 km/h 7 mph /  11.3 km/h 87 % 0 in /  0.0 mm
01:32 41.4 °F /  5.2 °C 37.8 °F /  3.2 °C 29.6 in /  1002.6 hPa SE 4 mph /  6.4 km/h 8 mph /  12.9 km/h 87 % 0 in /  0.0 mm
01:37 41.5 °F /  5.3 °C 37.6 °F /  3.1 °C 29.6 in /  1002.3 hPa SE 9 mph /  14.5 km/h 9 mph /  14.5 km/h 86 % 0 in /  0.0 mm
01:42 41.5 °F /  5.3 °C 37.6 °F /  3.1 °C 29.6 in /  1002.6 hPa SE 4 mph /  6.4 km/h 9 mph /  14.5 km/h 86 % 0 in /  0.0 mm
01:47 41.4 °F /  5.2 °C 37.6 °F /  3.1 °C 29.6 in /  1002.6 hPa ESE 5 mph /  8.0 km/h 9 mph /  14.5 km/h 86 % 0 in /  0.0 mm
01:52 41.4 °F /  5.2 °C 37.6 °F /  3.1 °C 29.6 in /  1002.6 hPa SSE 4 mph /  6.4 km/h 9 mph /  14.5 km/h 86 % 0 in /  0.0 mm
01:57 41.2 °F /  5.1 °C 37.4 °F /  3.0 °C 29.6 in /  1002.6 hPa South 4 mph /  6.4 km/h 9 mph /  14.5 km/h 86 % 0 in /  0.0 mm
02:02 41.2 °F /  5.1 °C 37.6 °F /  3.1 °C 29.6 in /  1002.6 hPa SE 5 mph /  8.0 km/h 7 mph /  11.3 km/h 87 % 0 in /  0.0 mm
02:07 41.2 °F /  5.1 °C 37.6 °F /  3.1 °C 29.6 in /  1002.6 hPa SE 4 mph /  6.4 km/h 7 mph /  11.3 km/h 87 % 0 in /  0.0 mm
02:12 41.2 °F /  5.1 °C 37.6 °F /  3.1 °C 29.6 in /  1002.3 hPa ESE 3 mph /  4.8 km/h 7 mph /  11.3 km/h 87 % 0 in /  0.0 mm
02:17 41.2 °F /  5.1 °C 37.6 °F /  3.1 °C 29.6 in /  1001.9 hPa SSE 1 mph /  1.6 km/h 7 mph /  11.3 km/h 87 % 0 in /  0.0 mm
02:22 41.2 °F /  5.1 °C 37.6 °F /  3.1 °C 29.6 in /  1001.9 hPa SSE 1 mph /  1.6 km/h 6 mph /  9.7 km/h 87 % 0 in /  0.0 mm
02:27 41.2 °F /  5.1 °C 37.6 °F /  3.1 °C 29.6 in /  1001.9 hPa SE 3 mph /  4.8 km/h 5 mph /  8.0 km/h 87 % 0 in /  0.0 mm
02:32 41.2 °F /  5.1 °C 37.6 °F /  3.1 °C 29.6 in /  1001.9 hPa Calm   9 mph /  14.5 km/h 87 % 0 in /  0.0 mm
02:37 41.2 °F /  5.1 °C 37.6 °F /  3.1 °C 29.6 in /  1001.6 hPa SE 3 mph /  4.8 km/h 9 mph /  14.5 km/h 87 % 0 in /  0.0 mm
02:42 41.2 °F /  5.1 °C 37.6 °F /  3.1 °C 29.6 in /  1001.2 hPa SE 4 mph /  6.4 km/h 6 mph /  9.7 km/h 87 % 0 in /  0.0 mm
02:47 41.4 °F /  5.2 °C 37.8 °F /  3.2 °C 29.5 in /  1000.2 hPa ESE 7 mph /  11.3 km/h 7 mph /  11.3 km/h 87 % 0 in /  0.0 mm
02:52 41.7 °F /  5.4 °C 37.8 °F /  3.2 °C 29.6 in /  1000.6 hPa SSE 5 mph /  8.0 km/h 13 mph /  20.9 km/h 86 % 0 in /  0.0 mm
02:57 42.1 °F /  5.6 °C 38.1 °F /  3.4 °C 29.6 in /  1000.6 hPa East 9 mph /  14.5 km/h 14 mph /  22.5 km/h 86 % 0 in /  0.0 mm
03:02 42.3 °F /  5.7 °C 38.1 °F /  3.4 °C 29.6 in /  1000.6 hPa SSE 3 mph /  4.8 km/h 14 mph /  22.5 km/h 85 % 0 in /  0.0 mm
03:07 42.3 °F /  5.7 °C 38.1 °F /  3.4 °C 29.6 in /  1000.9 hPa SSE 1 mph /  1.6 km/h 11 mph /  17.7 km/h 85 % 0 in /  0.0 mm
03:12 42.3 °F /  5.7 °C 38.1 °F /  3.4 °C 29.6 in /  1000.9 hPa SSE 2 mph /  3.2 km/h 11 mph /  17.7 km/h 85 % 0 in /  0.0 mm
03:17 42.4 °F /  5.8 °C 37.9 °F /  3.3 °C 29.6 in /  1000.6 hPa SE 1 mph /  1.6 km/h 9 mph /  14.5 km/h 84 % 0 in /  0.0 mm
03:22 42.4 °F /  5.8 °C 37.9 °F /  3.3 °C 29.6 in /  1000.6 hPa SE 3 mph /  4.8 km/h 9 mph /  14.5 km/h 84 % 0 in /  0.0 mm
03:27 42.6 °F /  5.9 °C 37.8 °F /  3.2 °C 29.6 in /  1000.6 hPa SSE 2 mph /  3.2 km/h 8 mph /  12.9 km/h 83 % 0 in /  0.0 mm
03:32 42.6 °F /  5.9 °C 37.8 °F /  3.2 °C 29.6 in /  1000.6 hPa SSE 3 mph /  4.8 km/h 10 mph /  16.1 km/h 83 % 0 in /  0.0 mm
03:37 42.6 °F /  5.9 °C 37.8 °F /  3.2 °C 29.5 in /  1000.2 hPa SE 1 mph /  1.6 km/h 10 mph /  16.1 km/h 83 % 0 in /  0.0 mm
03:42 42.8 °F /  6.0 °C 37.8 °F /  3.2 °C 29.5 in /  1000.2 hPa SE 6 mph /  9.7 km/h 8 mph /  12.9 km/h 82 % 0 in /  0.0 mm
03:47 42.8 °F /  6.0 °C 37.8 °F /  3.2 °C 29.5 in /  1000.2 hPa ESE 7 mph /  11.3 km/h 10 mph /  16.1 km/h 82 % 0 in /  0.0 mm
03:52 43 °F /  6.1 °C 37.9 °F /  3.3 °C 29.5 in /  999.9 hPa SE 4 mph /  6.4 km/h 12 mph /  19.3 km/h 82 % 0 in /  0.0 mm
03:57 42.6 °F /  5.9 °C 37.6 °F /  3.1 °C 29.5 in /  999.9 hPa ESE 3 mph /  4.8 km/h 12 mph /  19.3 km/h 82 % 0 in /  0.0 mm
04:02 42.6 °F /  5.9 °C 37.8 °F /  3.2 °C 29.5 in /  999.9 hPa SE 4 mph /  6.4 km/h 9 mph /  14.5 km/h 83 % 0 in /  0.0 mm
04:07 42.4 °F /  5.8 °C 37.6 °F /  3.1 °C 29.5 in /  999.9 hPa ESE 4 mph /  6.4 km/h 9 mph /  14.5 km/h 83 % 0 in /  0.0 mm
04:12 42.4 °F /  5.8 °C 37.9 °F /  3.3 °C 29.5 in /  999.9 hPa SE 8 mph /  12.9 km/h 12 mph /  19.3 km/h 84 % 0.01 in /  0.3 mm
04:17 42.3 °F /  5.7 °C 38.1 °F /  3.4 °C 29.5 in /  999.5 hPa ESE 9 mph /  14.5 km/h 13 mph /  20.9 km/h 85 % 0.02 in /  0.5 mm
04:22 42.1 °F /  5.6 °C 38.1 °F /  3.4 °C 29.5 in /  999.2 hPa SE 6 mph /  9.7 km/h 19 mph /  30.6 km/h 86 % 0.04 in /  1.0 mm
04:27 41.5 °F /  5.3 °C 38.3 °F /  3.5 °C 29.5 in /  999.2 hPa ESE 3 mph /  4.8 km/h 19 mph /  30.6 km/h 88 % 0.05 in /  1.3 mm
04:32 41.4 °F /  5.2 °C 38.3 °F /  3.5 °C 29.5 in /  999.2 hPa SE 8 mph /  12.9 km/h 19 mph /  30.6 km/h 89 % 0.06 in /  1.5 mm
04:37 41.2 °F /  5.1 °C 38.1 °F /  3.4 °C 29.5 in /  999.2 hPa East 10 mph /  16.1 km/h 14 mph /  22.5 km/h 89 % 0.07 in /  1.8 mm
04:42 41.2 °F /  5.1 °C 38.5 °F /  3.6 °C 29.5 in /  998.9 hPa SSE 8 mph /  12.9 km/h 14 mph /  22.5 km/h 90 % 0.09 in /  2.3 mm
04:47 41 °F /  5.0 °C 38.7 °F /  3.7 °C 29.5 in /  998.5 hPa ESE 4 mph /  6.4 km/h 10 mph /  16.1 km/h 91 % 0.1 in /  2.5 mm
04:52 41 °F /  5.0 °C 38.7 °F /  3.7 °C 29.5 in /  998.5 hPa ESE 8 mph /  12.9 km/h 10 mph /  16.1 km/h 91 % 0.11 in /  2.8 mm
04:57 41 °F /  5.0 °C 38.7 °F /  3.7 °C 29.5 in /  998.2 hPa SE 5 mph /  8.0 km/h 14 mph /  22.5 km/h 91 % 0.13 in /  3.3 mm
05:02 40.8 °F /  4.9 °C 38.7 °F /  3.7 °C 29.5 in /  997.9 hPa SE 3 mph /  4.8 km/h 14 mph /  22.5 km/h 92 % 0.13 in /  3.3 mm
05:12 40.8 °F /  4.9 °C 39 °F /  3.9 °C 29.5 in /  997.9 hPa SE 10 mph /  16.1 km/h 10 mph /  16.1 km/h 93 % 0.13 in /  3.3 mm
05:17 41.2 °F /  5.1 °C 39 °F /  3.9 °C 29.5 in /  997.9 hPa SE 8 mph /  12.9 km/h 11 mph /  17.7 km/h 92 % 0.12 in /  3.0 mm
05:22 41.2 °F /  5.1 °C 39 °F /  3.9 °C 29.5 in /  997.5 hPa SE 8 mph /  12.9 km/h 12 mph /  19.3 km/h 92 % 0.11 in /  2.8 mm
05:27 41.4 °F /  5.2 °C 39.2 °F /  4.0 °C 29.5 in /  997.5 hPa SE 10 mph /  16.1 km/h 13 mph /  20.9 km/h 92 % 0.11 in /  2.8 mm
05:37 41.7 °F /  5.4 °C 39.6 °F /  4.2 °C 29.5 in /  997.2 hPa SSE 9 mph /  14.5 km/h 18 mph /  29.0 km/h 92 % 0.1 in /  2.5 mm
05:42 41.7 °F /  5.4 °C 39.6 °F /  4.2 °C 29.5 in /  997.2 hPa SE 10 mph /  16.1 km/h 18 mph /  29.0 km/h 92 % 0.09 in /  2.3 mm
05:47 41.9 °F /  5.5 °C 39.7 °F /  4.3 °C 29.4 in /  996.8 hPa SE 6 mph /  9.7 km/h 18 mph /  29.0 km/h 92 % 0.09 in /  2.3 mm
05:52 41.7 °F /  5.4 °C 39.6 °F /  4.2 °C 29.4 in /  996.8 hPa East 7 mph /  11.3 km/h 17 mph /  27.4 km/h 92 % 0.09 in /  2.3 mm
05:57 41.7 °F /  5.4 °C 39.6 °F /  4.2 °C 29.4 in /  996.8 hPa SE 6 mph /  9.7 km/h 16 mph /  25.7 km/h 92 % 0.08 in /  2.0 mm
06:02 41.9 °F /  5.5 °C 39.7 °F /  4.3 °C 29.4 in /  996.8 hPa SSE 8 mph /  12.9 km/h 16 mph /  25.7 km/h 92 % 0.07 in /  1.8 mm
06:07 41.9 °F /  5.5 °C 39.7 °F /  4.3 °C 29.4 in /  996.8 hPa SSE 4 mph /  6.4 km/h 16 mph /  25.7 km/h 92 % 0.07 in /  1.8 mm
06:12 41.7 °F /  5.4 °C 39.9 °F /  4.4 °C 29.4 in /  996.5 hPa SSE 6 mph /  9.7 km/h 14 mph /  22.5 km/h 93 % 0.07 in /  1.8 mm
06:17 41.9 °F /  5.5 °C 40.1 °F /  4.5 °C 29.4 in /  996.5 hPa SSE 5 mph /  8.0 km/h 14 mph /  22.5 km/h 93 % 0.06 in /  1.5 mm
06:22 42.3 °F /  5.7 °C 40.5 °F /  4.7 °C 29.4 in /  996.2 hPa South 10 mph /  16.1 km/h 14 mph /  22.5 km/h 93 % 0.06 in /  1.5 mm
06:27 42.4 °F /  5.8 °C 40.6 °F /  4.8 °C 29.4 in /  996.2 hPa SSE 9 mph /  14.5 km/h 18 mph /  29.0 km/h 93 % 0.06 in /  1.5 mm
06:32 42.6 °F /  5.9 °C 40.5 °F /  4.7 °C 29.4 in /  995.8 hPa SE 7 mph /  11.3 km/h 18 mph /  29.0 km/h 92 % 0.06 in /  1.5 mm
06:37 43 °F /  6.1 °C 40.8 °F /  4.9 °C 29.4 in /  995.8 hPa SSW 8 mph /  12.9 km/h 18 mph /  29.0 km/h 92 % 0.06 in /  1.5 mm
06:42 43.2 °F /  6.2 °C 41 °F /  5.0 °C 29.4 in /  995.5 hPa SE 5 mph /  8.0 km/h 17 mph /  27.4 km/h 92 % 0.06 in /  1.5 mm
06:47 43.2 °F /  6.2 °C 41.4 °F /  5.2 °C 29.4 in /  995.1 hPa SSE 6 mph /  9.7 km/h 16 mph /  25.7 km/h 93 % 0.05 in /  1.3 mm
06:52 43.3 °F /  6.3 °C 41.5 °F /  5.3 °C 29.4 in /  995.1 hPa South 10 mph /  16.1 km/h 16 mph /  25.7 km/h 93 % 0.06 in /  1.5 mm
07:02 43.5 °F /  6.4 °C 41.4 °F /  5.2 °C 29.4 in /  994.8 hPa SSE 5 mph /  8.0 km/h 16 mph /  25.7 km/h 92 % 0.04 in /  1.0 mm
07:07 43.5 °F /  6.4 °C 41.4 °F /  5.2 °C 29.4 in /  994.5 hPa SSE 2 mph /  3.2 km/h 13 mph /  20.9 km/h 92 % 0.04 in /  1.0 mm
07:12 43.5 °F /  6.4 °C 41.4 °F /  5.2 °C 29.4 in /  994.5 hPa South 3 mph /  4.8 km/h 13 mph /  20.9 km/h 92 % 0.03 in /  0.8 mm
07:17 43.5 °F /  6.4 °C 41 °F /  5.0 °C 29.4 in /  994.1 hPa ESE 4 mph /  6.4 km/h 11 mph /  17.7 km/h 91 % 0.03 in /  0.8 mm
07:22 43.5 °F /  6.4 °C 41 °F /  5.0 °C 29.4 in /  994.1 hPa SSW 5 mph /  8.0 km/h 11 mph /  17.7 km/h 91 % 0.02 in /  0.5 mm
07:27 43.5 °F /  6.4 °C 41 °F /  5.0 °C 29.4 in /  994.1 hPa ESE 6 mph /  9.7 km/h 12 mph /  19.3 km/h 91 % 0.02 in /  0.5 mm
07:32 43.3 °F /  6.3 °C 40.8 °F /  4.9 °C 29.4 in /  993.8 hPa SSW 9 mph /  14.5 km/h 13 mph /  20.9 km/h 91 % 0.02 in /  0.5 mm
07:37 43.3 °F /  6.3 °C 40.8 °F /  4.9 °C 29.3 in /  993.5 hPa ESE 7 mph /  11.3 km/h 13 mph /  20.9 km/h 91 % 0.02 in /  0.5 mm
07:42 43.3 °F /  6.3 °C 40.8 °F /  4.9 °C 29.3 in /  993.5 hPa SE 6 mph /  9.7 km/h 13 mph /  20.9 km/h 91 % 0.01 in /  0.3 mm
07:47 43.3 °F /  6.3 °C 40.8 °F /  4.9 °C 29.3 in /  993.5 hPa SE 2 mph /  3.2 km/h 12 mph /  19.3 km/h 91 % 0 in /  0.0 mm
07:52 43.2 °F /  6.2 °C 40.6 °F /  4.8 °C 29.3 in /  993.5 hPa SSE 4 mph /  6.4 km/h 12 mph /  19.3 km/h 91 % 0 in /  0.0 mm
07:57 43.2 °F /  6.2 °C 40.6 °F /  4.8 °C 29.3 in /  993.1 hPa SE 7 mph /  11.3 km/h 12 mph /  19.3 km/h 91 % 0 in /  0.0 mm
08:02 43.3 °F /  6.3 °C 40.8 °F /  4.9 °C 29.3 in /  993.1 hPa SE 6 mph /  9.7 km/h 12 mph /  19.3 km/h 91 % 0 in /  0.0 mm
08:07 43.3 °F /  6.3 °C 40.6 °F /  4.8 °C 29.3 in /  992.8 hPa SE 11 mph /  17.7 km/h 16 mph /  25.7 km/h 90 % 0 in /  0.0 mm
08:12 43.5 °F /  6.4 °C 40.8 °F /  4.9 °C 29.3 in /  992.4 hPa SE 8 mph /  12.9 km/h 17 mph /  27.4 km/h 90 % 0 in /  0.0 mm
08:17 43.9 °F /  6.6 °C 40.8 °F /  4.9 °C 29.3 in /  992.1 hPa ESE 8 mph /  12.9 km/h 17 mph /  27.4 km/h 89 % 0 in /  0.0 mm
08:22 44.1 °F /  6.7 °C 41 °F /  5.0 °C 29.3 in /  992.1 hPa ESE 6 mph /  9.7 km/h 22 mph /  35.4 km/h 89 % 0 in /  0.0 mm
08:32 44.2 °F /  6.8 °C 41 °F /  5.0 °C 29.3 in /  991.8 hPa ESE 15 mph /  24.1 km/h 19 mph /  30.6 km/h 88 % 0 in /  0.0 mm
08:37 44.8 °F /  7.1 °C 41.2 °F /  5.1 °C 29.3 in /  991.4 hPa South 14 mph /  22.5 km/h 19 mph /  30.6 km/h 87 % 0 in /  0.0 mm
08:42 45.1 °F /  7.3 °C 41.2 °F /  5.1 °C 29.3 in /  991.4 hPa SE 7 mph /  11.3 km/h 21 mph /  33.8 km/h 86 % 0.01 in /  0.3 mm
08:47 45 °F /  7.2 °C 41.4 °F /  5.2 °C 29.3 in /  990.7 hPa SE 12 mph /  19.3 km/h 23 mph /  37.0 km/h 87 % 0.02 in /  0.5 mm
08:52 44.8 °F /  7.1 °C 41.2 °F /  5.1 °C 29.3 in /  990.7 hPa SSE 6 mph /  9.7 km/h 23 mph /  37.0 km/h 87 % 0.02 in /  0.5 mm
08:57 44.8 °F /  7.1 °C 41.4 °F /  5.2 °C 29.3 in /  990.7 hPa South 17 mph /  27.4 km/h 23 mph /  37.0 km/h 88 % 0.02 in /  0.5 mm
09:02 45 °F /  7.2 °C 41.4 °F /  5.2 °C 29.2 in /  990.4 hPa SE 10 mph /  16.1 km/h 29 mph /  46.7 km/h 87 % 0.03 in /  0.8 mm
09:07 45.1 °F /  7.3 °C 41.5 °F /  5.3 °C 29.2 in /  990.4 hPa SSW 16 mph /  25.7 km/h 29 mph /  46.7 km/h 87 % 0.04 in /  1.0 mm
09:12 45.3 °F /  7.4 °C 41.7 °F /  5.4 °C 29.2 in /  990.1 hPa SSE 10 mph /  16.1 km/h 29 mph /  46.7 km/h 87 % 0.04 in /  1.0 mm
09:17 45.1 °F /  7.3 °C 41.7 °F /  5.4 °C 29.2 in /  990.1 hPa SE 6 mph /  9.7 km/h 24 mph /  38.6 km/h 88 % 0.06 in /  1.5 mm
09:22 45 °F /  7.2 °C 41.9 °F /  5.5 °C 29.2 in /  989.7 hPa SE 15 mph /  24.1 km/h 27 mph /  43.4 km/h 89 % 0.09 in /  2.3 mm
09:32 44.4 °F /  6.9 °C 41.7 °F /  5.4 °C 29.2 in /  989.7 hPa SE 8 mph /  12.9 km/h 27 mph /  43.4 km/h 90 % 0.13 in /  3.3 mm
09:37 44.4 °F /  6.9 °C 41.9 °F /  5.5 °C 29.2 in /  989.4 hPa SSE 17 mph /  27.4 km/h 24 mph /  38.6 km/h 91 % 0.14 in /  3.6 mm
09:42 44.4 °F /  6.9 °C 42.3 °F /  5.7 °C 29.2 in /  989.4 hPa South 14 mph /  22.5 km/h 24 mph /  38.6 km/h 92 % 0.15 in /  3.8 mm
09:47 44.8 °F /  7.1 °C 42.8 °F /  6.0 °C 29.2 in /  989.1 hPa SSW 21 mph /  33.8 km/h 24 mph /  38.6 km/h 93 % 0.17 in /  4.3 mm
09:52 45 °F /  7.2 °C 43 °F /  6.1 °C 29.2 in /  989.1 hPa SSW 15 mph /  24.1 km/h 28 mph /  45.1 km/h 93 % 0.18 in /  4.6 mm
09:57 45.1 °F /  7.3 °C 43.2 °F /  6.2 °C 29.2 in /  989.1 hPa SSW 25 mph /  40.2 km/h 28 mph /  45.1 km/h 93 % 0.18 in /  4.6 mm
10:02 45.9 °F /  7.7 °C 43.7 °F /  6.5 °C 29.2 in /  989.1 hPa WSW 34 mph /  54.7 km/h 40 mph /  64.4 km/h 92 % 0.19 in /  4.8 mm
10:07 46.2 °F /  7.9 °C 43.7 °F /  6.5 °C 29.2 in /  989.4 hPa SW 22 mph /  35.4 km/h 40 mph /  64.4 km/h 91 % 0.18 in /  4.6 mm
10:12 46.2 °F /  7.9 °C 43.7 °F /  6.5 °C 29.2 in /  989.7 hPa WSW 36 mph /  57.9 km/h 40 mph /  64.4 km/h 91 % 0.18 in /  4.6 mm
10:17 46.2 °F /  7.9 °C 43.5 °F /  6.4 °C 29.2 in /  990.1 hPa WSW 24 mph /  38.6 km/h 40 mph /  64.4 km/h 90 % 0.17 in /  4.3 mm
10:22 46.2 °F /  7.9 °C 43.5 °F /  6.4 °C 29.2 in /  990.1 hPa WSW 22 mph /  35.4 km/h 40 mph /  64.4 km/h 90 % 0.14 in /  3.6 mm
10:27 46.2 °F /  7.9 °C 43.5 °F /  6.4 °C 29.3 in /  990.7 hPa SW 25 mph /  40.2 km/h 40 mph /  64.4 km/h 90 % 0.13 in /  3.3 mm
10:32 46.2 °F /  7.9 °C 43.5 °F /  6.4 °C 29.3 in /  991.1 hPa WSW 21 mph /  33.8 km/h 40 mph /  64.4 km/h 90 % 0.13 in /  3.3 mm
10:37 46.2 °F /  7.9 °C 43.5 °F /  6.4 °C 29.3 in /  991.4 hPa WSW 17 mph /  27.4 km/h 40 mph /  64.4 km/h 90 % 0.12 in /  3.0 mm
10:42 46.2 °F /  7.9 °C 43.7 °F /  6.5 °C 29.3 in /  991.8 hPa SW 21 mph /  33.8 km/h 40 mph /  64.4 km/h 91 % 0.09 in /  2.3 mm
10:47 46 °F /  7.8 °C 43.5 °F /  6.4 °C 29.3 in /  992.1 hPa SW 18 mph /  29.0 km/h 40 mph /  64.4 km/h 91 % 0.09 in /  2.3 mm
10:57 45.9 °F /  7.7 °C 43.9 °F /  6.6 °C 29.3 in /  992.4 hPa SW 10 mph /  16.1 km/h 34 mph /  54.7 km/h 93 % 0.09 in /  2.3 mm
11:02 45.9 °F /  7.7 °C 43.7 °F /  6.5 °C 29.3 in /  992.8 hPa WSW 8 mph /  12.9 km/h 30 mph /  48.3 km/h 92 % 0.08 in /  2.0 mm
11:07 45.9 °F /  7.7 °C 43.9 °F /  6.6 °C 29.3 in /  993.1 hPa SSW 14 mph /  22.5 km/h 30 mph /  48.3 km/h 93 % 0.07 in /  1.8 mm
11:12 45.9 °F /  7.7 °C 43.9 °F /  6.6 °C 29.3 in /  993.1 hPa SW 13 mph /  20.9 km/h 30 mph /  48.3 km/h 93 % 0.08 in /  2.0 mm
11:17 45.9 °F /  7.7 °C 43.9 °F /  6.6 °C 29.3 in /  993.5 hPa WSW 15 mph /  24.1 km/h 30 mph /  48.3 km/h 93 % 0.07 in /  1.8 mm
11:22 45.9 °F /  7.7 °C 43.9 °F /  6.6 °C 29.4 in /  993.8 hPa WSW 17 mph /  27.4 km/h 32 mph /  51.5 km/h 93 % 0.07 in /  1.8 mm
11:27 45.7 °F /  7.6 °C 43.7 °F /  6.5 °C 29.4 in /  993.8 hPa WSW 13 mph /  20.9 km/h 32 mph /  51.5 km/h 93 % 0.06 in /  1.5 mm
11:32 45.7 °F /  7.6 °C 44.1 °F /  6.7 °C 29.4 in /  994.1 hPa West 23 mph /  37.0 km/h 37 mph /  59.5 km/h 94 % 0.05 in /  1.3 mm
11:37 45.7 °F /  7.6 °C 43.7 °F /  6.5 °C 29.4 in /  994.1 hPa West 20 mph /  32.2 km/h 37 mph /  59.5 km/h 93 % 0.05 in /  1.3 mm
11:42 46 °F /  7.8 °C 44.1 °F /  6.7 °C 29.4 in /  994.8 hPa West 9 mph /  14.5 km/h 37 mph /  59.5 km/h 93 % 0.04 in /  1.0 mm
11:47 45.9 °F /  7.7 °C 43.9 °F /  6.6 °C 29.4 in /  994.8 hPa WSW 18 mph /  29.0 km/h 37 mph /  59.5 km/h 93 % 0.03 in /  0.8 mm
11:52 45.9 °F /  7.7 °C 44.2 °F /  6.8 °C 29.4 in /  995.1 hPa West 12 mph /  19.3 km/h 37 mph /  59.5 km/h 94 % 0.02 in /  0.5 mm
11:57 45.7 °F /  7.6 °C 44.1 °F /  6.7 °C 29.4 in /  995.1 hPa WSW 22 mph /  35.4 km/h 31 mph /  49.9 km/h 94 % 0.02 in /  0.5 mm
12:02 45.7 °F /  7.6 °C 44.1 °F /  6.7 °C 29.4 in /  995.5 hPa West 25 mph /  40.2 km/h 27 mph /  43.4 km/h 94 % 0.02 in /  0.5 mm
12:07 45.7 °F /  7.6 °C 44.1 °F /  6.7 °C 29.4 in /  995.5 hPa West 18 mph /  29.0 km/h 32 mph /  51.5 km/h 94 % 0.02 in /  0.5 mm
12:12 45.7 °F /  7.6 °C 44.1 °F /  6.7 °C 29.4 in /  995.8 hPa West 17 mph /  27.4 km/h 32 mph /  51.5 km/h 94 % 0.02 in /  0.5 mm
12:17 45.3 °F /  7.4 °C 43.7 °F /  6.5 °C 29.4 in /  996.2 hPa WSW 26 mph /  41.8 km/h 32 mph /  51.5 km/h 94 % 0.02 in /  0.5 mm
12:22 45.1 °F /  7.3 °C 43.2 °F /  6.2 °C 29.4 in /  996.2 hPa WSW 27 mph /  43.4 km/h 32 mph /  51.5 km/h 93 % 0.03 in /  0.8 mm
12:27 45.1 °F /  7.3 °C 42.6 °F /  5.9 °C 29.4 in /  996.5 hPa West 23 mph /  37.0 km/h 32 mph /  51.5 km/h 91 % 0.03 in /  0.8 mm
12:32 45.1 °F /  7.3 °C 43 °F /  6.1 °C 29.4 in /  996.8 hPa West 16 mph /  25.7 km/h 37 mph /  59.5 km/h 92 % 0.02 in /  0.5 mm
12:37 44.6 °F /  7.0 °C 42.1 °F /  5.6 °C 29.5 in /  997.2 hPa WNW 21 mph /  33.8 km/h 38 mph /  61.1 km/h 91 % 0.02 in /  0.5 mm
12:42 44.1 °F /  6.7 °C 41.4 °F /  5.2 °C 29.5 in /  997.5 hPa West 31 mph /  49.9 km/h 38 mph /  61.1 km/h 90 % 0.03 in /  0.8 mm
12:47 43.7 °F /  6.5 °C 41 °F /  5.0 °C 29.5 in /  997.9 hPa West 29 mph /  46.7 km/h 38 mph /  61.1 km/h 90 % 0.03 in /  0.8 mm
12:52 43.5 °F /  6.4 °C 40.5 °F /  4.7 °C 29.5 in /  998.2 hPa WSW 27 mph /  43.4 km/h 40 mph /  64.4 km/h 89 % 0.03 in /  0.8 mm
12:57 43.3 °F /  6.3 °C 39.4 °F /  4.1 °C 29.5 in /  998.5 hPa West 31 mph /  49.9 km/h 40 mph /  64.4 km/h 86 % 0.03 in /  0.8 mm
13:02 43.2 °F /  6.2 °C 39.2 °F /  4.0 °C 29.5 in /  998.9 hPa West 20 mph /  32.2 km/h 41 mph /  66.0 km/h 86 % 0.03 in /  0.8 mm
13:07 43.3 °F /  6.3 °C 38.8 °F /  3.8 °C 29.5 in /  998.9 hPa WNW 23 mph /  37.0 km/h 41 mph /  66.0 km/h 84 % 0.02 in /  0.5 mm
13:12 43.3 °F /  6.3 °C 39.4 °F /  4.1 °C 29.5 in /  999.5 hPa West 12 mph /  19.3 km/h 43 mph /  69.2 km/h 86 % 0.03 in /  0.8 mm
13:17 43.2 °F /  6.2 °C 39.6 °F /  4.2 °C 29.5 in /  999.5 hPa WSW 27 mph /  43.4 km/h 43 mph /  69.2 km/h 87 % 0.02 in /  0.5 mm
13:22 43.2 °F /  6.2 °C 39.2 °F /  4.0 °C 29.5 in /  999.9 hPa West 23 mph /  37.0 km/h 43 mph /  69.2 km/h 86 % 0.02 in /  0.5 mm
13:27 43.3 °F /  6.3 °C 39.2 °F /  4.0 °C 29.5 in /  999.9 hPa West 19 mph /  30.6 km/h 33 mph /  53.1 km/h 85 % 0.02 in /  0.5 mm
13:32 43.3 °F /  6.3 °C 39.2 °F /  4.0 °C 29.5 in /  1000.2 hPa WSW 10 mph /  16.1 km/h 33 mph /  53.1 km/h 85 % 0.02 in /  0.5 mm
13:37 43.3 °F /  6.3 °C 39.2 °F /  4.0 °C 29.6 in /  1000.6 hPa West 20 mph /  32.2 km/h 29 mph /  46.7 km/h 85 % 0.02 in /  0.5 mm
13:42 43.5 °F /  6.4 °C 39.4 °F /  4.1 °C 29.6 in /  1000.9 hPa WNW 13 mph /  20.9 km/h 29 mph /  46.7 km/h 85 % 0.01 in /  0.3 mm
13:47 43.5 °F /  6.4 °C 39 °F /  3.9 °C 29.6 in /  1000.9 hPa West 20 mph /  32.2 km/h 30 mph /  48.3 km/h 84 % 0.01 in /  0.3 mm
13:52 43.7 °F /  6.5 °C 39.2 °F /  4.0 °C 29.6 in /  1001.2 hPa NW 20 mph /  32.2 km/h 30 mph /  48.3 km/h 84 % 0.01 in /  0.3 mm
13:57 43.9 °F /  6.6 °C 39.4 °F /  4.1 °C 29.6 in /  1001.2 hPa West 8 mph /  12.9 km/h 35 mph /  56.3 km/h 84 % 0.01 in /  0.3 mm
14:02 43.9 °F /  6.6 °C 39.4 °F /  4.1 °C 29.6 in /  1001.6 hPa WSW 14 mph /  22.5 km/h 35 mph /  56.3 km/h 84 % 0.01 in /  0.3 mm
14:07 43.9 °F /  6.6 °C 39.7 °F /  4.3 °C 29.6 in /  1001.9 hPa WSW 22 mph /  35.4 km/h 35 mph /  56.3 km/h 85 % 0 in /  0.0 mm
14:12 43.9 °F /  6.6 °C 39.7 °F /  4.3 °C 29.6 in /  1001.9 hPa WSW 20 mph /  32.2 km/h 30 mph /  48.3 km/h 85 % 0 in /  0.0 mm
14:17 43.9 °F /  6.6 °C 39.7 °F /  4.3 °C 29.6 in /  1002.3 hPa WSW 9 mph /  14.5 km/h 30 mph /  48.3 km/h 85 % 0 in /  0.0 mm
14:27 44.1 °F /  6.7 °C 39.9 °F /  4.4 °C 29.6 in /  1002.6 hPa West 23 mph /  37.0 km/h 24 mph /  38.6 km/h 85 % 0 in /  0.0 mm
14:32 44.2 °F /  6.8 °C 39.7 °F /  4.3 °C 29.6 in /  1002.6 hPa WNW 17 mph /  27.4 km/h 26 mph /  41.8 km/h 84 % 0 in /  0.0 mm
14:37 44.4 °F /  6.9 °C 39.9 °F /  4.4 °C 29.6 in /  1002.9 hPa West 15 mph /  24.1 km/h 27 mph /  43.4 km/h 84 % 0 in /  0.0 mm
14:42 44.6 °F /  7.0 °C 39.7 °F /  4.3 °C 29.6 in /  1002.9 hPa West 14 mph /  22.5 km/h 27 mph /  43.4 km/h 83 % 0 in /  0.0 mm
14:47 44.8 °F /  7.1 °C 39.9 °F /  4.4 °C 29.6 in /  1003.3 hPa West 20 mph /  32.2 km/h 27 mph /  43.4 km/h 83 % 0 in /  0.0 mm
14:52 44.8 °F /  7.1 °C 39.6 °F /  4.2 °C 29.6 in /  1003.3 hPa West 16 mph /  25.7 km/h 27 mph /  43.4 km/h 82 % 0 in /  0.0 mm
14:57 45 °F /  7.2 °C 39.7 °F /  4.3 °C 29.6 in /  1003.3 hPa West 10 mph /  16.1 km/h 27 mph /  43.4 km/h 82 % 0 in /  0.0 mm
15:02 45.1 °F /  7.3 °C 39.7 °F /  4.3 °C 29.6 in /  1003.6 hPa WSW 15 mph /  24.1 km/h 29 mph /  46.7 km/h 81 % 0 in /  0.0 mm
15:07 45.3 °F /  7.4 °C 39.9 °F /  4.4 °C 29.6 in /  1003.6 hPa WSW 13 mph /  20.9 km/h 30 mph /  48.3 km/h 81 % 0 in /  0.0 mm
15:12 45.3 °F /  7.4 °C 39.9 °F /  4.4 °C 29.6 in /  1003.9 hPa WSW 6 mph /  9.7 km/h 30 mph /  48.3 km/h 81 % 0 in /  0.0 mm
15:17 45.3 °F /  7.4 °C 39.9 °F /  4.4 °C 29.6 in /  1003.9 hPa WSW 18 mph /  29.0 km/h 30 mph /  48.3 km/h 81 % 0 in /  0.0 mm
15:22 45.5 °F /  7.5 °C 39.7 °F /  4.3 °C 29.7 in /  1004.3 hPa West 24 mph /  38.6 km/h 24 mph /  38.6 km/h 80 % 0 in /  0.0 mm
15:27 45.7 °F /  7.6 °C 39.9 °F /  4.4 °C 29.7 in /  1004.3 hPa West 9 mph /  14.5 km/h 25 mph /  40.2 km/h 80 % 0 in /  0.0 mm
15:32 45.9 °F /  7.7 °C 40.1 °F /  4.5 °C 29.7 in /  1004.3 hPa West 13 mph /  20.9 km/h 25 mph /  40.2 km/h 80 % 0 in /  0.0 mm
15:37 45.9 °F /  7.7 °C 39.7 °F /  4.3 °C 29.7 in /  1004.6 hPa WSW 11 mph /  17.7 km/h 25 mph /  40.2 km/h 79 % 0 in /  0.0 mm
15:42 46 °F /  7.8 °C 39.6 °F /  4.2 °C 29.7 in /  1004.6 hPa West 14 mph /  22.5 km/h 27 mph /  43.4 km/h 78 % 0 in /  0.0 mm
15:47 46 °F /  7.8 °C 39.2 °F /  4.0 °C 29.7 in /  1005.0 hPa SW 10 mph /  16.1 km/h 27 mph /  43.4 km/h 77 % 0 in /  0.0 mm
15:52 46 °F /  7.8 °C 39.2 °F /  4.0 °C 29.7 in /  1005.0 hPa WSW 11 mph /  17.7 km/h 27 mph /  43.4 km/h 77 % 0 in /  0.0 mm
15:57 46.2 °F /  7.9 °C 39.4 °F /  4.1 °C 29.7 in /  1005.0 hPa WNW 9 mph /  14.5 km/h 22 mph /  35.4 km/h 77 % 0 in /  0.0 mm
16:02 46.2 °F /  7.9 °C 39.7 °F /  4.3 °C 29.7 in /  1005.3 hPa WSW 12 mph /  19.3 km/h 19 mph /  30.6 km/h 78 % 0 in /  0.0 mm
16:07 46.4 °F /  8.0 °C 39.9 °F /  4.4 °C 29.7 in /  1005.3 hPa West 11 mph /  17.7 km/h 19 mph /  30.6 km/h 78 % 0 in /  0.0 mm
16:12 46.6 °F /  8.1 °C 40.1 °F /  4.5 °C 29.7 in /  1005.6 hPa WSW 11 mph /  17.7 km/h 21 mph /  33.8 km/h 78 % 0 in /  0.0 mm
16:17 46.6 °F /  8.1 °C 40.1 °F /  4.5 °C 29.7 in /  1005.6 hPa WNW 9 mph /  14.5 km/h 21 mph /  33.8 km/h 78 % 0 in /  0.0 mm
16:22 46.4 °F /  8.0 °C 39.9 °F /  4.4 °C 29.7 in /  1005.6 hPa West 15 mph /  24.1 km/h 21 mph /  33.8 km/h 78 % 0 in /  0.0 mm
16:27 46.4 °F /  8.0 °C 39.6 °F /  4.2 °C 29.7 in /  1006.0 hPa West 11 mph /  17.7 km/h 22 mph /  35.4 km/h 77 % 0 in /  0.0 mm
16:32 46.4 °F /  8.0 °C 39.6 °F /  4.2 °C 29.7 in /  1006.0 hPa WSW 10 mph /  16.1 km/h 22 mph /  35.4 km/h 77 % 0 in /  0.0 mm
16:37 46.6 °F /  8.1 °C 39.7 °F /  4.3 °C 29.7 in /  1006.0 hPa West 12 mph /  19.3 km/h 22 mph /  35.4 km/h 77 % 0 in /  0.0 mm
16:42 46.8 °F /  8.2 °C 39.9 °F /  4.4 °C 29.7 in /  1006.0 hPa WSW 11 mph /  17.7 km/h 19 mph /  30.6 km/h 77 % 0 in /  0.0 mm
16:47 47.1 °F /  8.4 °C 39.9 °F /  4.4 °C 29.7 in /  1006.3 hPa SSW 6 mph /  9.7 km/h 18 mph /  29.0 km/h 76 % 0 in /  0.0 mm
16:52 47.5 °F /  8.6 °C 39.6 °F /  4.2 °C 29.7 in /  1006.3 hPa West 6 mph /  9.7 km/h 18 mph /  29.0 km/h 74 % 0 in /  0.0 mm
16:57 47.5 °F /  8.6 °C 39.2 °F /  4.0 °C 29.7 in /  1006.3 hPa West 17 mph /  27.4 km/h 17 mph /  27.4 km/h 73 % 0 in /  0.0 mm
17:02 47.3 °F /  8.5 °C 39.4 °F /  4.1 °C 29.7 in /  1006.7 hPa West 15 mph /  24.1 km/h 20 mph /  32.2 km/h 74 % 0 in /  0.0 mm
17:07 47.1 °F /  8.4 °C 39.2 °F /  4.0 °C 29.7 in /  1006.7 hPa WSW 9 mph /  14.5 km/h 20 mph /  32.2 km/h 74 % 0 in /  0.0 mm
17:12 46.9 °F /  8.3 °C 39.4 °F /  4.1 °C 29.7 in /  1006.7 hPa WSW 7 mph /  11.3 km/h 20 mph /  32.2 km/h 75 % 0 in /  0.0 mm
17:17 46.6 °F /  8.1 °C 39 °F /  3.9 °C 29.7 in /  1006.7 hPa WSW 9 mph /  14.5 km/h 17 mph /  27.4 km/h 75 % 0 in /  0.0 mm
17:22 46.4 °F /  8.0 °C 39.2 °F /  4.0 °C 29.7 in /  1006.7 hPa WSW 6 mph /  9.7 km/h 13 mph /  20.9 km/h 76 % 0 in /  0.0 mm
17:27 46.6 °F /  8.1 °C 39.4 °F /  4.1 °C 29.7 in /  1006.7 hPa SW 5 mph /  8.0 km/h 15 mph /  24.1 km/h 76 % 0 in /  0.0 mm
17:32 46.4 °F /  8.0 °C 39.2 °F /  4.0 °C 29.7 in /  1006.7 hPa WSW 10 mph /  16.1 km/h 15 mph /  24.1 km/h 76 % 0 in /  0.0 mm
17:37 46.2 °F /  7.9 °C 39 °F /  3.9 °C 29.7 in /  1006.7 hPa WSW 6 mph /  9.7 km/h 15 mph /  24.1 km/h 76 % 0 in /  0.0 mm
17:42 46 °F /  7.8 °C 38.8 °F /  3.8 °C 29.7 in /  1006.7 hPa WSW 5 mph /  8.0 km/h 12 mph /  19.3 km/h 76 % 0 in /  0.0 mm
17:47 45.9 °F /  7.7 °C 39 °F /  3.9 °C 29.7 in /  1006.7 hPa West 6 mph /  9.7 km/h 12 mph /  19.3 km/h 77 % 0 in /  0.0 mm
17:52 45.7 °F /  7.6 °C 38.8 °F /  3.8 °C 29.7 in /  1006.7 hPa SW 5 mph /  8.0 km/h 11 mph /  17.7 km/h 77 % 0 in /  0.0 mm
17:57 45.7 °F /  7.6 °C 38.8 °F /  3.8 °C 29.7 in /  1006.7 hPa WSW 4 mph /  6.4 km/h 10 mph /  16.1 km/h 77 % 0 in /  0.0 mm
18:02 45.3 °F /  7.4 °C 38.8 °F /  3.8 °C 29.7 in /  1006.7 hPa WSW 6 mph /  9.7 km/h 10 mph /  16.1 km/h 78 % 0 in /  0.0 mm
18:07 45.3 °F /  7.4 °C 38.8 °F /  3.8 °C 29.7 in /  1006.7 hPa West 6 mph /  9.7 km/h 10 mph /  16.1 km/h 78 % 0 in /  0.0 mm
18:12 45.1 °F /  7.3 °C 38.7 °F /  3.7 °C 29.7 in /  1006.7 hPa SW 2 mph /  3.2 km/h 9 mph /  14.5 km/h 78 % 0 in /  0.0 mm
18:17 45 °F /  7.2 °C 38.5 °F /  3.6 °C 29.7 in /  1006.7 hPa SW 4 mph /  6.4 km/h 8 mph /  12.9 km/h 78 % 0 in /  0.0 mm
18:22 45 °F /  7.2 °C 38.8 °F /  3.8 °C 29.7 in /  1006.7 hPa SW 3 mph /  4.8 km/h 10 mph /  16.1 km/h 79 % 0 in /  0.0 mm
18:27 44.4 °F /  6.9 °C 38.7 °F /  3.7 °C 29.7 in /  1006.7 hPa SW 3 mph /  4.8 km/h 10 mph /  16.1 km/h 80 % 0 in /  0.0 mm
18:32 44.2 °F /  6.8 °C 38.5 °F /  3.6 °C 29.7 in /  1006.7 hPa SW 3 mph /  4.8 km/h 10 mph /  16.1 km/h 80 % 0 in /  0.0 mm
18:37 44.2 °F /  6.8 °C 38.5 °F /  3.6 °C 29.7 in /  1006.7 hPa WSW 3 mph /  4.8 km/h 7 mph /  11.3 km/h 80 % 0 in /  0.0 mm
18:42 44.1 °F /  6.7 °C 38.7 °F /  3.7 °C 29.7 in /  1006.7 hPa SW 3 mph /  4.8 km/h 7 mph /  11.3 km/h 81 % 0 in /  0.0 mm
18:47 44.1 °F /  6.7 °C 38.7 °F /  3.7 °C 29.7 in /  1006.7 hPa SW 3 mph /  4.8 km/h 6 mph /  9.7 km/h 81 % 0 in /  0.0 mm
18:52 43.9 °F /  6.6 °C 38.5 °F /  3.6 °C 29.7 in /  1006.7 hPa SW 3 mph /  4.8 km/h 6 mph /  9.7 km/h 81 % 0 in /  0.0 mm
18:57 43.9 °F /  6.6 °C 38.5 °F /  3.6 °C 29.7 in /  1006.7 hPa SW 3 mph /  4.8 km/h 5 mph /  8.0 km/h 81 % 0 in /  0.0 mm
19:02 43.7 °F /  6.5 °C 38.3 °F /  3.5 °C 29.7 in /  1006.7 hPa SSW 2 mph /  3.2 km/h 5 mph /  8.0 km/h 81 % 0 in /  0.0 mm
19:07 42.4 °F /  5.8 °C 37.4 °F /  3.0 °C 29.7 in /  1006.7 hPa SSW 2 mph /  3.2 km/h 5 mph /  8.0 km/h 82 % 0 in /  0.0 mm
19:12 41.2 °F /  5.1 °C 37 °F /  2.8 °C 29.7 in /  1006.7 hPa SSW 1 mph /  1.6 km/h 5 mph /  8.0 km/h 85 % 0 in /  0.0 mm
19:17 40.6 °F /  4.8 °C 37.4 °F /  3.0 °C 29.7 in /  1006.7 hPa SSW 2 mph /  3.2 km/h 3 mph /  4.8 km/h 88 % 0 in /  0.0 mm
19:22 40.6 °F /  4.8 °C 37.4 °F /  3.0 °C 29.7 in /  1006.7 hPa SSW 2 mph /  3.2 km/h 3 mph /  4.8 km/h 88 % 0 in /  0.0 mm
19:32 41.2 °F /  5.1 °C 37.9 °F /  3.3 °C 29.7 in /  1006.7 hPa SW 3 mph /  4.8 km/h 4 mph /  6.4 km/h 88 % 0 in /  0.0 mm
19:37 41.5 °F /  5.3 °C 37.9 °F /  3.3 °C 29.7 in /  1006.7 hPa SW 4 mph /  6.4 km/h 4 mph /  6.4 km/h 87 % 0 in /  0.0 mm
19:42 41.7 °F /  5.4 °C 37.8 °F /  3.2 °C 29.7 in /  1006.7 hPa SW 6 mph /  9.7 km/h 6 mph /  9.7 km/h 86 % 0 in /  0.0 mm
19:47 42.1 °F /  5.6 °C 37.9 °F /  3.3 °C 29.7 in /  1006.7 hPa SW 3 mph /  4.8 km/h 6 mph /  9.7 km/h 85 % 0 in /  0.0 mm
19:52 42.1 °F /  5.6 °C 37.6 °F /  3.1 °C 29.7 in /  1006.7 hPa SSW 3 mph /  4.8 km/h 7 mph /  11.3 km/h 84 % 0 in /  0.0 mm
19:57 42.1 °F /  5.6 °C 37.6 °F /  3.1 °C 29.7 in /  1007.0 hPa SSW 4 mph /  6.4 km/h 7 mph /  11.3 km/h 84 % 0 in /  0.0 mm
20:02 41.7 °F /  5.4 °C 37.6 °F /  3.1 °C 29.7 in /  1006.7 hPa SW 4 mph /  6.4 km/h 7 mph /  11.3 km/h 85 % 0 in /  0.0 mm
20:07 41.2 °F /  5.1 °C 37 °F /  2.8 °C 29.7 in /  1006.7 hPa South 2 mph /  3.2 km/h 7 mph /  11.3 km/h 85 % 0 in /  0.0 mm
20:12 40.6 °F /  4.8 °C 36.9 °F /  2.7 °C 29.7 in /  1006.7 hPa SSW 1 mph /  1.6 km/h 6 mph /  9.7 km/h 86 % 0 in /  0.0 mm
20:17 40.3 °F /  4.6 °C 36.5 °F /  2.5 °C 29.7 in /  1006.7 hPa SW 2 mph /  3.2 km/h 5 mph /  8.0 km/h 86 % 0 in /  0.0 mm
20:22 39.7 °F /  4.3 °C 36.1 °F /  2.3 °C 29.7 in /  1006.3 hPa SSW 1 mph /  1.6 km/h 4 mph /  6.4 km/h 87 % 0 in /  0.0 mm
20:27 39.4 °F /  4.1 °C 36.1 °F /  2.3 °C 29.7 in /  1006.7 hPa SSW 2 mph /  3.2 km/h 3 mph /  4.8 km/h 88 % 0 in /  0.0 mm
20:32 39.4 °F /  4.1 °C 36.5 °F /  2.5 °C 29.7 in /  1006.7 hPa SSW 2 mph /  3.2 km/h 3 mph /  4.8 km/h 89 % 0 in /  0.0 mm
20:42 39 °F /  3.9 °C 35.8 °F /  2.1 °C 29.7 in /  1006.3 hPa Calm   3 mph /  4.8 km/h 88 % 0 in /  0.0 mm
20:47 38.8 °F /  3.8 °C 35.6 °F /  2.0 °C 29.7 in /  1006.3 hPa Calm   3 mph /  4.8 km/h 88 % 0 in /  0.0 mm
20:52 37.9 °F /  3.3 °C 34.7 °F /  1.5 °C 29.7 in /  1006.3 hPa Calm   2 mph /  3.2 km/h 88 % 0 in /  0.0 mm
20:57 37.6 °F /  3.1 °C 34.7 °F /  1.5 °C 29.7 in /  1006.7 hPa Calm   2 mph /  3.2 km/h 89 % 0 in /  0.0 mm
21:02 37.2 °F /  2.9 °C 34.5 °F /  1.4 °C 29.7 in /  1006.7 hPa Calm   2 mph /  3.2 km/h 90 % 0 in /  0.0 mm
21:07 37.2 °F /  2.9 °C 34.9 °F /  1.6 °C 29.7 in /  1006.7 hPa Calm   2 mph /  3.2 km/h 91 % 0 in /  0.0 mm
21:12 37.2 °F /  2.9 °C 35.1 °F /  1.7 °C 29.7 in /  1006.3 hPa Calm   1 mph /  1.6 km/h 92 % 0 in /  0.0 mm
21:17 37.2 °F /  2.9 °C 34.9 °F /  1.6 °C 29.7 in /  1006.3 hPa Calm     91 % 0 in /  0.0 mm
21:22 37.2 °F /  2.9 °C 34.9 °F /  1.6 °C 29.7 in /  1006.3 hPa Calm     91 % 0 in /  0.0 mm
21:27 37.6 °F /  3.1 °C 35.4 °F /  1.9 °C 29.7 in /  1006.3 hPa Calm     92 % 0 in /  0.0 mm
21:32 37.8 °F /  3.2 °C 35.1 °F /  1.7 °C 29.7 in /  1006.3 hPa Calm     90 % 0 in /  0.0 mm
21:37 37.6 °F /  3.1 °C 34.9 °F /  1.6 °C 29.7 in /  1006.0 hPa Calm     90 % 0 in /  0.0 mm
21:42 37.9 °F /  3.3 °C 35.6 °F /  2.0 °C 29.7 in /  1006.0 hPa Calm     91 % 0 in /  0.0 mm
21:47 38.1 °F /  3.4 °C 35.2 °F /  1.8 °C 29.7 in /  1006.0 hPa SSW 2 mph /  3.2 km/h 2 mph /  3.2 km/h 89 % 0 in /  0.0 mm
21:52 37.9 °F /  3.3 °C 35.1 °F /  1.7 °C 29.7 in /  1005.6 hPa SSW 1 mph /  1.6 km/h 2 mph /  3.2 km/h 89 % 0 in /  0.0 mm
21:57 37.9 °F /  3.3 °C 35.1 °F /  1.7 °C 29.7 in /  1005.6 hPa SSW 1 mph /  1.6 km/h 2 mph /  3.2 km/h 89 % 0 in /  0.0 mm
22:02 38.3 °F /  3.5 °C 35.4 °F /  1.9 °C 29.7 in /  1005.6 hPa South 1 mph /  1.6 km/h 4 mph /  6.4 km/h 89 % 0 in /  0.0 mm
22:07 38.5 °F /  3.6 °C 35.2 °F /  1.8 °C 29.7 in /  1005.6 hPa SW 3 mph /  4.8 km/h 4 mph /  6.4 km/h 88 % 0 in /  0.0 mm
22:12 38.8 °F /  3.8 °C 35.2 °F /  1.8 °C 29.7 in /  1005.6 hPa SSW 4 mph /  6.4 km/h 6 mph /  9.7 km/h 87 % 0 in /  0.0 mm
22:17 39.2 °F /  4.0 °C 35.6 °F /  2.0 °C 29.7 in /  1005.6 hPa SSW 3 mph /  4.8 km/h 6 mph /  9.7 km/h 87 % 0 in /  0.0 mm
22:22 39.2 °F /  4.0 °C 35.6 °F /  2.0 °C 29.7 in /  1005.6 hPa SW 4 mph /  6.4 km/h 7 mph /  11.3 km/h 87 % 0 in /  0.0 mm
22:27 39.4 °F /  4.1 °C 35.8 °F /  2.1 °C 29.7 in /  1005.6 hPa SSW 1 mph /  1.6 km/h 7 mph /  11.3 km/h 87 % 0 in /  0.0 mm
22:32 39.4 °F /  4.1 °C 35.8 °F /  2.1 °C 29.7 in /  1005.6 hPa SSW 4 mph /  6.4 km/h 6 mph /  9.7 km/h 87 % 0 in /  0.0 mm
22:37 39.4 °F /  4.1 °C 35.8 °F /  2.1 °C 29.7 in /  1005.6 hPa SSW 3 mph /  4.8 km/h 6 mph /  9.7 km/h 87 % 0 in /  0.0 mm
22:42 39.6 °F /  4.2 °C 36 °F /  2.2 °C 29.7 in /  1005.6 hPa SW 2 mph /  3.2 km/h 6 mph /  9.7 km/h 87 % 0 in /  0.0 mm
22:47 39.7 °F /  4.3 °C 36 °F /  2.2 °C 29.7 in /  1005.3 hPa South 1 mph /  1.6 km/h 6 mph /  9.7 km/h 86 % 0 in /  0.0 mm
22:52 39.7 °F /  4.3 °C 36 °F /  2.2 °C 29.7 in /  1005.3 hPa South 1 mph /  1.6 km/h 6 mph /  9.7 km/h 86 % 0 in /  0.0 mm
22:57 39.7 °F /  4.3 °C 36.1 °F /  2.3 °C 29.7 in /  1005.3 hPa South 1 mph /  1.6 km/h 4 mph /  6.4 km/h 87 % 0 in /  0.0 mm
23:02 39.7 °F /  4.3 °C 36.1 °F /  2.3 °C 29.7 in /  1005.3 hPa SW 1 mph /  1.6 km/h 4 mph /  6.4 km/h 87 % 0 in /  0.0 mm
23:07 39.7 °F /  4.3 °C 36.1 °F /  2.3 °C 29.7 in /  1005.0 hPa SSW 2 mph /  3.2 km/h 3 mph /  4.8 km/h 87 % 0 in /  0.0 mm
23:12 39.9 °F /  4.4 °C 36.3 °F /  2.4 °C 29.7 in /  1005.0 hPa SSW 1 mph /  1.6 km/h 2 mph /  3.2 km/h 87 % 0 in /  0.0 mm
23:17 39.9 °F /  4.4 °C 36.3 °F /  2.4 °C 29.7 in /  1005.0 hPa Calm   2 mph /  3.2 km/h 87 % 0 in /  0.0 mm
23:22 39.7 °F /  4.3 °C 36.1 °F /  2.3 °C 29.7 in /  1005.0 hPa Calm   2 mph /  3.2 km/h 87 % 0 in /  0.0 mm
23:27 39.9 °F /  4.4 °C 36.3 °F /  2.4 °C 29.7 in /  1005.0 hPa Calm   1 mph /  1.6 km/h 87 % 0 in /  0.0 mm
23:32 39.9 °F /  4.4 °C 36.3 °F /  2.4 °C 29.7 in /  1005.0 hPa Calm   1 mph /  1.6 km/h 87 % 0 in /  0.0 mm
23:37 39.9 °F /  4.4 °C 36.3 °F /  2.4 °C 29.7 in /  1005.0 hPa Calm   1 mph /  1.6 km/h 87 % 0 in /  0.0 mm
23:42 40.1 °F /  4.5 °C 36.5 °F /  2.5 °C 29.7 in /  1005.0 hPa Calm     87 % 0 in /  0.0 mm
23:47 40.1 °F /  4.5 °C 36.5 °F /  2.5 °C 29.7 in /  1005.0 hPa Calm     87 % 0 in /  0.0 mm
23:52 40.1 °F /  4.5 °C 36.9 °F /  2.7 °C 29.7 in /  1005.0 hPa Calm     88 % 0 in /  0.0 mm
23:57 40.3 °F /  4.6 °C 37 °F /  2.8 °C 29.7 in /  1004.6 hPa Calm   1 mph /  1.6 km/h 88 % 0 in /  0.0 mm
Meteo18
Compliments of Weather Underground - 4 mb

Script developed by  Jim McMurry - jmcmurry@mwt.net Adapted for the template by  Wim van der Kuil - Leuven-Template.eu

You find our weather info also at:

European Weather Network

Weather Underground

Equipment we use:

Weather-station
Davis Vue

Weather-program
Meteohub

Weather-server
Raspberry PI 2 B+

Provider
1 and 1

Davis Vue

Meteohub

Raspberry PI 2 B+

1 and 1